createdAt,value
2018-02-08T00:01:03.954Z,91.30
2018-02-08T00:03:31.474Z,91.40
2018-02-08T00:05:58.961Z,91.40
2018-02-08T00:08:26.477Z,91.50
2018-02-08T00:10:54.734Z,91.50
2018-02-08T00:13:22.249Z,91.50
2018-02-08T00:15:49.737Z,91.80
2018-02-08T00:18:17.257Z,91.60
2018-02-08T00:20:44.745Z,91.50
2018-02-08T00:23:12.262Z,91.50
2018-02-08T00:25:39.758Z,91.50
2018-02-08T00:28:07.258Z,91.40
2018-02-08T00:30:35.561Z,91.50
2018-02-08T00:33:03.058Z,91.50
2018-02-08T00:35:30.570Z,91.40
2018-02-08T00:37:58.057Z,91.50
2018-02-08T00:40:25.570Z,91.40
2018-02-08T00:42:53.065Z,91.40
2018-02-08T00:45:20.561Z,91.40
2018-02-08T00:47:48.086Z,91.50
2018-02-08T00:50:15.582Z,91.80
2018-02-08T00:52:43.102Z,91.90
2018-02-08T00:55:10.597Z,91.50
2018-02-08T00:57:38.113Z,91.50
2018-02-08T01:00:05.611Z,91.50
2018-02-08T01:02:33.134Z,91.60
2018-02-08T01:05:00.629Z,91.60
2018-02-08T01:07:28.130Z,91.60
2018-02-08T01:09:55.659Z,91.70
2018-02-08T01:12:23.926Z,91.90
2018-02-08T01:14:51.454Z,91.90
2018-02-08T01:17:18.953Z,92.10
2018-02-08T01:19:47.237Z,92.20
2018-02-08T01:22:15.538Z,92.00
2018-02-08T01:24:43.057Z,92.00
2018-02-08T01:27:10.555Z,91.90
2018-02-08T01:29:38.053Z,91.90
2018-02-08T01:32:05.576Z,91.80
2018-02-08T01:34:33.073Z,91.80
2018-02-08T01:37:00.590Z,91.90
2018-02-08T01:39:28.085Z,91.90
2018-02-08T01:41:55.604Z,92.00
2018-02-08T01:44:23.106Z,92.10
2018-02-08T01:46:50.626Z,92.20
2018-02-08T01:49:24.034Z,92.30
2018-02-08T01:51:51.855Z,92.30
2018-02-08T01:54:20.118Z,92.30
2018-02-08T01:56:47.619Z,92.30
2018-02-08T01:59:15.137Z,92.40
2018-02-08T02:01:42.633Z,92.40
2018-02-08T02:04:10.149Z,92.50
2018-02-08T02:06:37.649Z,92.40
2018-02-08T02:09:05.170Z,92.40
2018-02-08T02:11:32.662Z,92.40
2018-02-08T02:14:00.185Z,92.50
2018-02-08T02:16:27.694Z,92.50
2018-02-08T02:18:55.212Z,92.50
2018-02-08T02:21:23.473Z,92.50
2018-02-08T02:23:50.965Z,92.50
2018-02-08T02:26:18.481Z,92.50
2018-02-08T02:31:18.853Z,92.60
2018-02-08T02:33:47.115Z,92.70
2018-02-08T02:36:14.634Z,92.70
2018-02-08T02:38:42.141Z,92.70
2018-02-08T02:41:10.439Z,92.70
2018-02-08T02:43:37.941Z,92.70
2018-02-08T02:46:05.463Z,92.70
2018-02-08T02:48:32.971Z,92.70
2018-02-08T02:51:00.487Z,92.90
2018-02-08T02:53:28.006Z,92.80
2018-02-08T02:55:56.275Z,92.90
2018-02-08T02:58:23.798Z,92.90
2018-02-08T03:00:51.303Z,93.00
2018-02-08T03:03:19.590Z,93.00
2018-02-08T03:05:47.854Z,93.10
2018-02-08T03:08:16.147Z,93.10
2018-02-08T03:10:43.645Z,93.10
2018-02-08T03:13:11.166Z,93.10
2018-02-08T03:15:38.666Z,93.10
2018-02-08T03:18:06.186Z,93.20
2018-02-08T03:20:33.690Z,93.30
2018-02-08T03:23:01.193Z,93.40
2018-02-08T03:25:29.477Z,93.40
2018-02-08T03:27:57.274Z,93.40
2018-02-08T03:30:26.742Z,93.50
2018-02-08T03:32:54.242Z,93.60
2018-02-08T03:35:21.767Z,93.60
2018-02-08T03:37:49.267Z,93.60
2018-02-08T03:40:16.790Z,93.70
2018-02-08T03:42:44.286Z,93.70
2018-02-08T03:45:11.806Z,93.60
2018-02-08T03:47:39.307Z,93.80
2018-02-08T03:50:06.829Z,93.80
2018-02-08T03:52:34.334Z,93.80
2018-02-08T03:55:03.371Z,94.00
2018-02-08T03:57:30.872Z,93.90
2018-02-08T03:59:58.398Z,94.00
2018-02-08T04:02:25.902Z,94.10
2018-02-08T04:04:53.398Z,94.10
2018-02-08T04:07:20.926Z,94.00
2018-02-08T04:09:48.430Z,94.00
2018-02-08T04:12:15.950Z,94.10
2018-02-08T04:14:43.454Z,94.00
2018-02-08T04:17:10.973Z,94.00
2018-02-08T04:19:39.238Z,93.90
2018-02-08T04:22:06.766Z,93.90
2018-02-08T04:24:34.262Z,93.90
2018-02-08T04:27:02.554Z,94.00
2018-02-08T04:29:30.818Z,94.00
2018-02-08T04:31:59.085Z,93.90
2018-02-08T04:34:26.609Z,93.90
2018-02-08T04:36:54.115Z,93.90
2018-02-08T04:39:34.243Z,93.90
2018-02-08T04:42:13.526Z,93.90
2018-02-08T04:44:52.889Z,93.90
2018-02-08T04:50:22.886Z,93.80
2018-02-08T04:52:50.410Z,93.80
2018-02-08T04:55:17.909Z,93.80
2018-02-08T04:57:45.406Z,93.70
2018-02-08T05:00:12.942Z,93.70
2018-02-08T05:02:40.442Z,93.80
2018-02-08T05:05:07.966Z,93.80
2018-02-08T05:07:35.470Z,93.90
2018-02-08T05:10:02.995Z,94.00
2018-02-08T05:12:30.507Z,94.00
2018-02-08T05:14:58.782Z,94.10
2018-02-08T05:17:27.070Z,94.20
2018-02-08T05:19:54.602Z,94.10
2018-02-08T05:22:22.135Z,94.10
2018-02-08T05:24:50.402Z,94.20
2018-02-08T05:27:17.921Z,94.20
2018-02-08T05:29:45.423Z,94.60
2018-02-08T05:32:12.925Z,94.60
2018-02-08T05:34:41.214Z,94.70
2018-02-08T05:37:08.722Z,94.70
2018-02-08T05:39:36.250Z,94.90
2018-02-08T05:42:03.750Z,94.90
2018-02-08T05:44:31.278Z,95.10
2018-02-08T05:46:58.786Z,95.30
2018-02-08T05:49:27.078Z,95.70
2018-02-08T05:51:55.351Z,95.40
2018-02-08T05:54:23.629Z,95.50
2018-02-08T05:56:51.918Z,95.40
2018-02-08T05:59:19.430Z,95.40
2018-02-08T06:01:46.958Z,95.30
2018-02-08T06:04:14.458Z,95.20
2018-02-08T06:06:41.986Z,95.10
2018-02-08T06:09:09.486Z,94.90
2018-02-08T06:11:37.782Z,94.60
2018-02-08T06:14:05.281Z,94.60
2018-02-08T06:16:32.778Z,94.50
2018-02-08T06:19:01.079Z,94.10
2018-02-08T06:21:28.586Z,94.00
2018-02-08T06:23:56.106Z,94.00
2018-02-08T06:26:23.612Z,93.90
2018-02-08T06:28:51.151Z,93.90
2018-02-08T06:31:18.662Z,93.80
2018-02-08T06:33:46.950Z,93.80
2018-02-08T06:36:14.455Z,93.80
2018-02-08T06:38:41.954Z,93.90
2018-02-08T06:41:10.238Z,94.00
2018-02-08T06:43:37.737Z,94.00
2018-02-08T06:46:05.262Z,94.00
2018-02-08T06:48:32.762Z,94.00
2018-02-08T06:51:00.286Z,93.90
2018-02-08T06:53:27.794Z,93.80
2018-02-08T06:55:55.318Z,93.80
2018-02-08T06:58:22.814Z,93.80
2018-02-08T07:00:50.334Z,93.80
2018-02-08T07:03:17.829Z,93.80
2018-02-08T07:05:45.330Z,93.80
2018-02-08T07:08:12.858Z,94.10
2018-02-08T07:10:40.366Z,94.10
2018-02-08T07:13:07.886Z,94.00
2018-02-08T07:15:36.210Z,94.00
2018-02-08T07:18:03.730Z,93.90
2018-02-08T07:20:32.002Z,94.00
2018-02-08T07:23:00.289Z,94.00
2018-02-08T07:25:27.785Z,93.90
2018-02-08T07:27:55.281Z,94.00
2018-02-08T07:30:22.802Z,94.00
2018-02-08T07:32:50.298Z,93.90
2018-02-08T07:35:17.818Z,94.00
2018-02-08T07:37:45.326Z,94.10
2018-02-08T07:40:13.614Z,94.20
2018-02-08T07:42:41.114Z,94.10
2018-02-08T07:45:08.639Z,94.10
2018-02-08T07:47:36.142Z,94.00
2018-02-08T07:50:03.650Z,94.10
2018-02-08T07:52:31.178Z,94.00
2018-02-08T07:54:58.683Z,94.10
2018-02-08T07:57:26.201Z,94.10
2018-02-08T07:59:53.698Z,94.10
2018-02-08T08:02:21.218Z,94.30
2018-02-08T08:04:49.482Z,94.80
2018-02-08T08:07:17.010Z,94.50
2018-02-08T08:09:44.509Z,94.40
2018-02-08T08:12:12.005Z,94.40
2018-02-08T08:14:39.530Z,94.30
2018-02-08T08:17:07.795Z,94.00
2018-02-08T08:19:35.330Z,93.90
2018-02-08T08:22:02.836Z,95.40
2018-02-08T08:24:31.126Z,93.90
2018-02-08T08:26:58.626Z,93.90
2018-02-08T08:29:26.155Z,93.70
2018-02-08T08:31:53.658Z,93.30
2018-02-08T08:34:21.158Z,93.10
2018-02-08T08:36:48.681Z,93.10
2018-02-08T08:39:16.953Z,93.00
2018-02-08T08:41:44.485Z,93.00
2018-02-08T08:44:11.983Z,92.60
2018-02-08T08:46:39.502Z,92.30
2018-02-08T08:49:07.000Z,91.90
2018-02-08T08:51:34.522Z,91.70
2018-02-08T08:54:02.018Z,91.50
2018-02-08T08:56:30.284Z,90.90
2018-02-08T08:58:57.803Z,90.90
2018-02-08T09:01:25.298Z,91.00
2018-02-08T09:03:52.818Z,90.70
2018-02-08T09:06:20.310Z,90.30
2018-02-08T09:08:47.826Z,90.10
2018-02-08T09:11:15.325Z,89.90
2018-02-08T09:13:42.846Z,89.30
2018-02-08T09:16:10.346Z,89.00
2018-02-08T09:18:37.844Z,86.40
2018-02-08T09:21:05.361Z,85.10
2018-02-08T09:23:32.858Z,83.80
2018-02-08T09:26:00.383Z,82.40
2018-02-08T09:28:27.882Z,82.80
2018-02-08T09:30:55.402Z,83.10
2018-02-08T09:33:22.902Z,83.70
2018-02-08T09:35:50.398Z,84.50
2018-02-08T09:38:17.914Z,84.70
2018-02-08T09:40:45.410Z,84.20
2018-02-08T09:43:12.925Z,82.90
2018-02-08T09:45:40.421Z,83.50
2018-02-08T09:48:07.946Z,83.60
2018-02-08T09:50:35.443Z,83.70
2018-02-08T09:53:02.943Z,83.50
2018-02-08T09:55:31.230Z,81.80
2018-02-08T09:57:59.490Z,80.60
2018-02-08T10:00:27.785Z,77.40
2018-02-08T10:02:55.293Z,77.20
2018-02-08T10:05:22.812Z,74.10
2018-02-08T10:07:50.309Z,72.30
2018-02-08T10:10:17.806Z,70.60
2018-02-08T10:12:46.086Z,69.50
2018-02-08T10:15:14.346Z,67.10
2018-02-08T10:17:41.864Z,67.10
2018-02-08T10:20:09.358Z,65.10
2018-02-08T10:22:36.874Z,65.60
2018-02-08T10:25:04.370Z,65.30
2018-02-08T10:27:31.914Z,65.70
2018-02-08T10:29:59.405Z,66.30
2018-02-08T10:32:27.666Z,66.40
2018-02-08T10:34:55.189Z,66.30
2018-02-08T10:37:22.690Z,64.80
2018-02-08T10:39:50.983Z,62.60
2018-02-08T10:42:19.242Z,60.50
2018-02-08T10:44:46.757Z,60.50
2018-02-08T10:47:14.254Z,57.70
2018-02-08T10:49:41.774Z,54.50
2018-02-08T10:52:09.265Z,50.50
2018-02-08T10:54:36.762Z,47.80
2018-02-08T10:57:04.287Z,45.40
2018-02-08T10:59:31.788Z,42.60
2018-02-08T11:01:59.310Z,40.60
2018-02-08T11:04:26.806Z,38.20
2018-02-08T11:06:54.325Z,36.50
2018-02-08T11:09:21.823Z,35.80
2018-02-08T11:11:49.327Z,35.10
2018-02-08T11:14:16.849Z,33.60
2018-02-08T11:16:44.346Z,32.60
2018-02-08T11:19:11.874Z,31.00
2018-02-08T11:21:39.375Z,30.10
2018-02-08T11:24:06.900Z,30.00
2018-02-08T11:26:34.402Z,30.10
2018-02-08T11:29:02.694Z,29.50
2018-02-08T11:31:30.199Z,29.40
2018-02-08T11:33:57.727Z,29.30
2018-02-08T11:36:25.230Z,29.50
2018-02-08T11:38:52.734Z,28.70
2018-02-08T11:41:20.259Z,28.40
2018-02-08T11:43:47.813Z,28.60
2018-02-08T11:46:15.309Z,28.60
2018-02-08T11:48:42.805Z,29.60
2018-02-08T11:51:10.326Z,29.40
2018-02-08T11:53:37.830Z,29.20
2018-02-08T11:56:05.350Z,29.40
2018-02-08T11:58:32.854Z,30.00
2018-02-08T12:01:00.378Z,30.30
2018-02-08T12:03:27.874Z,31.40
2018-02-08T12:05:55.376Z,31.50
2018-02-08T12:08:22.898Z,31.60
2018-02-08T12:10:50.394Z,31.40
2018-02-08T12:13:17.914Z,31.70
2018-02-08T12:15:45.414Z,31.90
2018-02-08T12:18:12.958Z,32.00
2018-02-08T12:20:41.229Z,33.40
2018-02-08T12:23:09.517Z,33.60
2018-02-08T12:25:37.018Z,33.60
2018-02-08T12:28:04.538Z,33.90
2018-02-08T12:30:32.038Z,33.20
2018-02-08T12:32:59.542Z,33.50
2018-02-08T12:35:27.830Z,35.50
2018-02-08T12:37:55.340Z,35.50
2018-02-08T12:40:22.861Z,35.90
2018-02-08T12:42:50.361Z,36.40
2018-02-08T12:45:17.887Z,36.10
2018-02-08T12:47:45.385Z,35.70
2018-02-08T12:50:12.894Z,35.50
2018-02-08T12:52:40.423Z,35.10
2018-02-08T12:55:08.685Z,36.80
2018-02-08T12:57:36.215Z,36.70
2018-02-08T13:00:03.718Z,36.50
2018-02-08T13:02:32.006Z,36.50
2018-02-08T13:05:00.278Z,35.70
2018-02-08T13:07:28.572Z,35.40
2018-02-08T13:09:56.074Z,35.30
2018-02-08T13:12:23.570Z,35.50
2018-02-08T13:14:51.862Z,36.00
2018-02-08T13:17:19.362Z,36.00
2018-02-08T13:19:46.882Z,35.30
2018-02-08T13:22:14.386Z,36.30
2018-02-08T13:24:41.906Z,37.00
2018-02-08T13:27:09.402Z,37.10
2018-02-08T13:29:36.927Z,38.60
2018-02-08T13:32:07.121Z,38.20
2018-02-08T13:34:34.599Z,38.90
2018-02-08T13:37:02.118Z,38.10
2018-02-08T13:39:29.624Z,39.10
2018-02-08T13:41:57.162Z,39.10
2018-02-08T13:44:24.662Z,39.40
2018-02-08T13:46:53.158Z,40.80
2018-02-08T13:49:21.450Z,40.10
2018-02-08T13:52:02.806Z,40.20
2018-02-08T13:54:32.107Z,40.00
2018-02-08T13:57:05.618Z,39.60
2018-02-08T13:59:39.717Z,38.80
2018-02-08T14:02:08.057Z,39.70
2018-02-08T14:04:35.558Z,39.60
2018-02-08T14:07:03.062Z,39.60
2018-02-08T14:09:31.351Z,39.60
2018-02-08T14:11:58.850Z,39.60
2018-02-08T14:14:26.417Z,39.70
2018-02-08T14:16:53.907Z,40.10
2018-02-08T14:19:22.194Z,40.70
2018-02-08T14:21:50.458Z,40.20
2018-02-08T14:24:18.746Z,41.60
2018-02-08T14:26:46.249Z,41.50
2018-02-08T14:29:13.750Z,41.50
2018-02-08T14:31:42.035Z,42.40
2018-02-08T14:34:10.298Z,43.90
2018-02-08T14:36:37.822Z,43.80
2018-02-08T14:39:06.082Z,44.30
2018-02-08T14:41:33.600Z,44.30
2018-02-08T14:44:01.862Z,44.70
2018-02-08T14:46:29.386Z,44.60
2018-02-08T14:48:56.881Z,44.70
2018-02-08T14:51:24.378Z,45.20
2018-02-08T14:53:51.906Z,46.60
2018-02-08T14:56:20.166Z,47.20
2018-02-08T14:58:47.682Z,47.20
2018-02-08T15:01:15.182Z,48.50
2018-02-08T15:03:42.702Z,49.50
2018-02-08T15:06:10.202Z,50.50
2018-02-08T15:08:37.722Z,51.30
2018-02-08T15:11:05.219Z,51.80
2018-02-08T15:13:32.723Z,52.30
2018-02-08T15:16:00.246Z,53.10
2018-02-08T15:18:28.510Z,55.70
2018-02-08T15:20:56.030Z,55.10
2018-02-08T15:23:23.539Z,56.00
2018-02-08T15:25:51.826Z,57.90
2018-02-08T15:28:20.090Z,58.90
2018-02-08T15:30:47.610Z,58.80
2018-02-08T15:33:15.106Z,59.80
2018-02-08T15:35:42.610Z,61.00
2018-02-08T15:38:10.130Z,62.50
2018-02-08T15:40:38.394Z,64.30
2018-02-08T15:43:05.914Z,64.30
2018-02-08T15:45:33.406Z,65.10
2018-02-08T15:48:00.922Z,66.10
2018-02-08T15:50:28.417Z,67.10
2018-02-08T15:52:55.942Z,68.00
2018-02-08T15:55:23.443Z,69.00
2018-02-08T15:57:50.946Z,70.00
2018-02-08T16:00:18.474Z,71.20
2018-02-08T16:02:46.740Z,72.80
2018-02-08T16:05:14.258Z,72.80
2018-02-08T16:07:41.770Z,73.70
2018-02-08T16:10:10.063Z,74.90
2018-02-08T16:12:37.566Z,74.90
2018-02-08T16:15:05.087Z,75.60
2018-02-08T16:17:32.591Z,76.80
2018-02-08T16:20:00.858Z,77.20
2018-02-08T16:22:28.380Z,77.10
2018-02-08T16:24:55.886Z,77.30
2018-02-08T16:27:23.410Z,77.40
2018-02-08T16:29:50.911Z,78.20
2018-02-08T16:32:18.438Z,78.90
2018-02-08T16:34:45.938Z,79.70
2018-02-08T16:37:13.458Z,80.20
2018-02-08T16:39:40.958Z,80.60
2018-02-08T16:42:09.222Z,80.50
2018-02-08T16:44:36.753Z,80.90
2018-02-08T16:47:04.250Z,81.20
2018-02-08T16:49:31.770Z,81.50
2018-02-08T16:51:59.273Z,81.70
2018-02-08T16:54:27.562Z,82.80
2018-02-08T16:56:55.067Z,82.70
2018-02-08T16:59:23.358Z,83.10
2018-02-08T17:01:50.858Z,83.10
2018-02-08T17:04:19.122Z,83.80
2018-02-08T17:06:47.406Z,84.20
2018-02-08T17:09:15.674Z,84.20
2018-02-08T17:11:43.958Z,84.30
2018-02-08T17:14:12.226Z,84.40
2018-02-08T17:16:40.515Z,84.60
2018-02-08T17:19:08.028Z,84.60
2018-02-08T17:21:35.550Z,84.90
2018-02-08T17:24:03.062Z,84.90
2018-02-08T17:26:30.585Z,85.20
2018-02-08T17:28:58.083Z,85.40
2018-02-08T17:31:25.594Z,85.50
2018-02-08T17:33:53.114Z,91.10
2018-02-08T17:36:21.378Z,86.60
2018-02-08T17:38:48.899Z,86.60
2018-02-08T17:41:16.403Z,86.60
2018-02-08T17:43:44.690Z,86.90
2018-02-08T17:46:12.949Z,87.10
2018-02-08T17:48:40.470Z,87.10
2018-02-08T17:51:07.971Z,87.30
2018-02-08T17:53:36.256Z,87.70
2018-02-08T17:56:04.546Z,88.00
2018-02-08T17:58:32.042Z,88.00
2018-02-08T18:00:59.562Z,88.40
2018-02-08T18:03:27.062Z,88.50
2018-02-08T18:05:54.586Z,88.40
2018-02-08T18:08:22.091Z,88.60
2018-02-08T18:10:49.615Z,88.90
2018-02-08T18:13:17.114Z,88.90
2018-02-08T18:15:44.619Z,89.10
2018-02-08T18:18:12.142Z,89.50
2018-02-08T18:20:39.642Z,89.90
2018-02-08T18:23:07.166Z,90.00
2018-02-08T18:25:35.438Z,90.00
2018-02-08T18:28:02.966Z,90.00
2018-02-08T18:30:30.471Z,90.00
2018-02-08T18:32:58.754Z,89.90
2018-02-08T18:35:26.251Z,89.90
2018-02-08T18:37:53.749Z,90.10
2018-02-08T18:40:21.270Z,90.30
2018-02-08T18:42:48.766Z,90.30
2018-02-08T18:45:16.296Z,90.20
2018-02-08T18:47:43.807Z,90.40
2018-02-08T18:50:11.327Z,90.40
2018-02-08T18:52:38.826Z,90.40
2018-02-08T18:55:06.350Z,90.50
2018-02-08T18:57:33.854Z,90.40
2018-02-08T19:00:01.354Z,90.30
2018-02-08T19:02:28.878Z,90.30
2018-02-08T19:04:56.373Z,90.40
2018-02-08T19:07:23.898Z,90.60
2018-02-08T19:09:51.402Z,91.20
2018-02-08T19:12:18.929Z,91.00
2018-02-08T19:14:46.430Z,91.10
2018-02-08T19:17:14.694Z,91.30
2018-02-08T19:19:42.790Z,91.20
2018-02-08T19:22:11.063Z,91.20
2018-02-08T19:24:39.399Z,91.10
2018-02-08T19:27:06.902Z,91.10
2018-02-08T19:29:35.190Z,91.20
2018-02-08T19:32:02.743Z,91.20
2018-02-08T19:34:30.218Z,91.30
2018-02-08T19:36:57.743Z,91.30
2018-02-08T19:39:25.301Z,91.30
2018-02-08T19:41:53.590Z,92.30
2018-02-08T19:44:21.858Z,91.90
2018-02-08T19:46:50.146Z,91.70
2018-02-08T19:49:18.418Z,92.50
2018-02-08T19:51:46.690Z,92.50
2018-02-08T19:54:14.977Z,92.10
2018-02-08T19:56:43.243Z,91.60
2018-02-08T19:59:11.530Z,91.30
2018-02-08T20:01:39.797Z,91.20
2018-02-08T20:04:08.091Z,91.10
2018-02-08T20:06:35.589Z,91.50
2018-02-08T20:09:03.091Z,91.10
2018-02-08T20:11:31.383Z,91.10
2018-02-08T20:13:58.882Z,91.10
2018-02-08T20:16:26.410Z,91.20
2018-02-08T20:18:53.906Z,91.20
2018-02-08T20:21:21.435Z,91.20
2018-02-08T20:23:48.934Z,91.30
2018-02-08T20:26:16.462Z,91.40
2018-02-08T20:28:43.962Z,91.60
2018-02-08T20:31:13.431Z,91.90
2018-02-08T20:33:40.934Z,92.20
2018-02-08T20:36:09.222Z,92.60
2018-02-08T20:38:36.735Z,92.50
2018-02-08T20:41:04.237Z,92.60
2018-02-08T20:43:33.126Z,92.70
2018-02-08T20:46:01.398Z,92.90
2018-02-08T20:48:29.689Z,92.90
2018-02-08T20:50:57.202Z,92.90
2018-02-08T20:53:24.726Z,92.80
2018-02-08T20:55:52.226Z,92.70
2018-02-08T20:58:19.754Z,92.60
2018-02-08T21:00:47.262Z,92.70
2018-02-08T21:03:15.538Z,92.50
2018-02-08T21:05:43.835Z,92.40
2018-02-08T21:08:11.342Z,92.40
2018-02-08T21:10:38.875Z,92.30
2018-02-08T21:13:06.389Z,92.20
2018-02-08T21:15:34.682Z,91.90
2018-02-08T21:18:02.945Z,91.90
2018-02-08T21:20:31.252Z,92.00
2018-02-08T21:22:58.759Z,92.00
2018-02-08T21:25:26.268Z,92.00
2018-02-08T21:27:53.817Z,92.00
2018-02-08T21:30:21.336Z,92.30
2018-02-08T21:32:49.637Z,92.30
2018-02-08T21:35:17.906Z,92.30
2018-02-08T21:37:45.434Z,92.20
2018-02-08T21:40:12.949Z,92.40
2018-02-08T21:42:40.470Z,92.30
2018-02-08T21:45:07.971Z,92.20
2018-02-08T21:47:35.502Z,92.30
2018-02-08T21:50:03.769Z,92.40
2018-02-08T21:52:31.278Z,92.40
2018-02-08T21:54:58.802Z,92.40
2018-02-08T21:57:27.074Z,92.40
2018-02-08T21:59:55.363Z,92.50
2018-02-08T22:02:23.639Z,92.60
2018-02-08T22:04:51.934Z,92.70
2018-02-08T22:07:19.442Z,92.70
2018-02-08T22:09:46.965Z,92.80
2018-02-08T22:12:14.482Z,92.90
2018-02-08T22:14:42.753Z,93.10
2018-02-08T22:17:11.054Z,93.10
2018-02-08T22:19:38.564Z,93.10
2018-02-08T22:22:06.095Z,93.10
2018-02-08T22:24:33.598Z,93.10
2018-02-08T22:27:01.122Z,93.00
2018-02-08T22:29:28.625Z,93.20
2018-02-08T22:31:56.922Z,93.20
2018-02-08T22:34:24.430Z,93.20
2018-02-08T22:36:51.934Z,93.30
2018-02-08T22:39:19.466Z,93.30
2018-02-08T22:41:46.974Z,93.30
2018-02-08T22:44:14.506Z,93.30
2018-02-08T22:46:42.778Z,93.70
2018-02-08T22:49:11.069Z,93.70
2018-02-08T22:51:38.573Z,93.70
2018-02-08T22:54:06.102Z,93.60
2018-02-08T22:56:33.606Z,93.60
2018-02-08T22:59:01.110Z,93.70
2018-02-08T23:01:28.647Z,93.50
2018-02-08T23:03:56.918Z,93.50
2018-02-08T23:06:25.215Z,93.60
2018-02-08T23:08:52.717Z,93.60
2018-02-08T23:11:20.242Z,93.60
2018-02-08T23:13:47.750Z,93.60
2018-02-08T23:16:15.290Z,93.60
2018-02-08T23:18:42.794Z,93.60
2018-02-08T23:21:11.062Z,93.50
2018-02-08T23:23:39.355Z,93.90
2018-02-08T23:26:06.869Z,93.90
2018-02-08T23:28:34.403Z,94.20
2018-02-08T23:31:01.907Z,94.00
2018-02-08T23:33:30.197Z,93.70
2018-02-08T23:35:58.461Z,93.40
2018-02-08T23:38:26.757Z,93.50
2018-02-08T23:40:55.030Z,93.50
2018-02-08T23:43:23.299Z,93.40
2018-02-08T23:45:51.595Z,93.70
2018-02-08T23:48:19.102Z,93.60
2018-02-08T23:50:46.631Z,93.90
2018-02-08T23:53:14.138Z,93.90
2018-02-08T23:55:41.666Z,94.10
2018-02-08T23:58:09.165Z,93.70
